sensor_id;sensor_type;location;lat;lon;timestamp;pressure;altitude;pressure_sealevel;temperature;humidity
62895;BME280;49204;44.916;37.998;2022-12-18T00:00:07;101826.61;;;8.58;70.71
62895;BME280;49204;44.916;37.998;2022-12-18T00:02:44;101824.86;;;8.57;70.71
62895;BME280;49204;44.916;37.998;2022-12-18T00:05:13;101828.42;;;8.53;70.70
62895;BME280;49204;44.916;37.998;2022-12-18T00:07:45;101834.14;;;8.50;70.68
62895;BME280;49204;44.916;37.998;2022-12-18T00:10:17;101835.95;;;8.45;70.67
62895;BME280;49204;44.916;37.998;2022-12-18T00:12:46;101839.05;;;8.42;70.67
62895;BME280;49204;44.916;37.998;2022-12-18T00:15:15;101833.80;;;8.39;70.69
62895;BME280;49204;44.916;37.998;2022-12-18T00:17:43;101832.56;;;8.34;70.74
62895;BME280;49204;44.916;37.998;2022-12-18T00:20:12;101829.97;;;8.29;70.79
62895;BME280;49204;44.916;37.998;2022-12-18T00:22:42;101830.89;;;8.27;70.79
62895;BME280;49204;44.916;37.998;2022-12-18T00:25:10;101835.78;;;8.20;70.89
62895;BME280;49204;44.916;37.998;2022-12-18T00:27:39;101841.05;;;8.17;70.91
62895;BME280;49204;44.916;37.998;2022-12-18T00:30:10;101843.73;;;8.14;71.08
62895;BME280;49204;44.916;37.998;2022-12-18T00:32:39;101832.34;;;8.15;71.07
62895;BME280;49204;44.916;37.998;2022-12-18T00:35:08;101836.27;;;8.16;71.06
62895;BME280;49204;44.916;37.998;2022-12-18T00:37:37;101846.36;;;8.14;71.05
62895;BME280;49204;44.916;37.998;2022-12-18T00:40:07;101848.56;;;8.09;71.12
62895;BME280;49204;44.916;37.998;2022-12-18T00:42:37;101855.12;;;8.09;71.14
62895;BME280;49204;44.916;37.998;2022-12-18T00:45:26;101852.56;;;8.06;71.18
62895;BME280;49204;44.916;37.998;2022-12-18T00:47:56;101841.22;;;8.03;71.14
62895;BME280;49204;44.916;37.998;2022-12-18T00:50:26;101836.86;;;8.00;71.34
62895;BME280;49204;44.916;37.998;2022-12-18T00:52:54;101828.56;;;8.02;71.45
62895;BME280;49204;44.916;37.998;2022-12-18T00:55:23;101818.09;;;7.99;71.61
62895;BME280;49204;44.916;37.998;2022-12-18T00:57:52;101822.01;;;8.02;71.71
62895;BME280;49204;44.916;37.998;2022-12-18T01:00:21;101812.73;;;8.10;71.73
62895;BME280;49204;44.916;37.998;2022-12-18T01:02:50;101804.40;;;8.12;71.70
62895;BME280;49204;44.916;37.998;2022-12-18T01:05:19;101800.83;;;8.18;71.69
62895;BME280;49204;44.916;37.998;2022-12-18T01:07:48;101789.27;;;8.33;71.89
62895;BME280;49204;44.916;37.998;2022-12-18T01:10:17;101783.20;;;8.64;72.07
62895;BME280;49204;44.916;37.998;2022-12-18T01:12:45;101783.57;;;8.98;71.90
62895;BME280;49204;44.916;37.998;2022-12-18T01:15:15;101786.17;;;9.25;71.55
62895;BME280;49204;44.916;37.998;2022-12-18T01:17:44;101782.80;;;9.44;71.23
62895;BME280;49204;44.916;37.998;2022-12-18T01:20:13;101791.42;;;9.51;70.91
62895;BME280;49204;44.916;37.998;2022-12-18T01:22:42;101785.79;;;9.49;70.61
62895;BME280;49204;44.916;37.998;2022-12-18T01:25:11;101781.01;;;9.46;70.57
62895;BME280;49204;44.916;37.998;2022-12-18T01:27:39;101784.86;;;9.51;70.47
62895;BME280;49204;44.916;37.998;2022-12-18T01:30:09;101789.30;;;9.47;70.44
62895;BME280;49204;44.916;37.998;2022-12-18T01:32:38;101790.57;;;9.51;70.46
62895;BME280;49204;44.916;37.998;2022-12-18T01:35:07;101788.44;;;9.47;70.35
62895;BME280;49204;44.916;37.998;2022-12-18T01:37:36;101799.97;;;9.38;70.34
62895;BME280;49204;44.916;37.998;2022-12-18T01:40:05;101794.38;;;9.33;70.34
62895;BME280;49204;44.916;37.998;2022-12-18T01:42:35;101800.28;;;9.20;70.35
62895;BME280;49204;44.916;37.998;2022-12-18T01:53:11;101806.06;;;8.87;70.50
62895;BME280;49204;44.916;37.998;2022-12-18T01:55:45;101805.66;;;8.83;70.53
62895;BME280;49204;44.916;37.998;2022-12-18T01:58:13;101810.60;;;8.76;70.44
62895;BME280;49204;44.916;37.998;2022-12-18T02:00:43;101798.85;;;8.70;70.49
62895;BME280;49204;44.916;37.998;2022-12-18T02:03:12;101804.17;;;8.67;70.53
62895;BME280;49204;44.916;37.998;2022-12-18T02:08:21;101802.86;;;8.67;70.74
62895;BME280;49204;44.916;37.998;2022-12-18T02:14:04;101807.67;;;8.66;70.91
62895;BME280;49204;44.916;37.998;2022-12-18T02:16:44;101808.14;;;8.64;70.82
62895;BME280;49204;44.916;37.998;2022-12-18T02:27:28;101795.92;;;8.92;71.02
62895;BME280;49204;44.916;37.998;2022-12-18T02:30:00;101806.02;;;9.18;70.94
62895;BME280;49204;44.916;37.998;2022-12-18T02:32:35;101800.78;;;9.68;70.87
62895;BME280;49204;44.916;37.998;2022-12-18T02:35:06;101803.63;;;10.03;70.31
62895;BME280;49204;44.916;37.998;2022-12-18T02:37:37;101798.22;;;10.32;69.88
62895;BME280;49204;44.916;37.998;2022-12-18T02:40:09;101788.59;;;10.52;69.52
62895;BME280;49204;44.916;37.998;2022-12-18T02:42:39;101788.66;;;10.69;69.25
62895;BME280;49204;44.916;37.998;2022-12-18T02:45:09;101788.48;;;10.76;69.03
62895;BME280;49204;44.916;37.998;2022-12-18T02:47:40;101789.09;;;10.88;68.89
62895;BME280;49204;44.916;37.998;2022-12-18T02:53:06;101800.67;;;11.00;68.52
62895;BME280;49204;44.916;37.998;2022-12-18T03:04:22;101807.90;;;10.72;68.22
62895;BME280;49204;44.916;37.998;2022-12-18T03:06:49;101817.38;;;10.60;68.19
62895;BME280;49204;44.916;37.998;2022-12-18T03:09:22;101816.80;;;10.46;68.24
62895;BME280;49204;44.916;37.998;2022-12-18T03:11:58;101808.75;;;10.32;68.33
62895;BME280;49204;44.916;37.998;2022-12-18T03:14:44;101811.01;;;10.28;68.52
62895;BME280;49204;44.916;37.998;2022-12-18T03:17:16;101826.22;;;10.36;68.63
62895;BME280;49204;44.916;37.998;2022-12-18T03:19:47;101828.28;;;10.43;68.69
62895;BME280;49204;44.916;37.998;2022-12-18T03:22:18;101818.78;;;10.57;68.65
62895;BME280;49204;44.916;37.998;2022-12-18T03:24:49;101806.00;;;10.79;68.52
62895;BME280;49204;44.916;37.998;2022-12-18T03:27:19;101813.42;;;10.99;68.22
62895;BME280;49204;44.916;37.998;2022-12-18T03:29:52;101820.58;;;11.12;67.96
62895;BME280;49204;44.916;37.998;2022-12-18T03:32:28;101821.78;;;11.18;67.81
62895;BME280;49204;44.916;37.998;2022-12-18T03:35:00;101815.05;;;11.23;67.69
62895;BME280;49204;44.916;37.998;2022-12-18T03:37:31;101812.06;;;11.38;67.25
62895;BME280;49204;44.916;37.998;2022-12-18T03:40:00;101806.16;;;11.45;67.11
62895;BME280;49204;44.916;37.998;2022-12-18T03:42:37;101802.35;;;11.56;66.65
62895;BME280;49204;44.916;37.998;2022-12-18T03:45:27;101799.55;;;11.79;65.78
62895;BME280;49204;44.916;37.998;2022-12-18T03:48:08;101796.01;;;11.96;65.19
62895;BME280;49204;44.916;37.998;2022-12-18T03:50:45;101797.42;;;12.10;64.79
62895;BME280;49204;44.916;37.998;2022-12-18T03:53:23;101786.98;;;12.20;64.29
62895;BME280;49204;44.916;37.998;2022-12-18T03:55:52;101793.39;;;12.26;64.19
62895;BME280;49204;44.916;37.998;2022-12-18T03:58:23;101794.67;;;12.28;64.07
62895;BME280;49204;44.916;37.998;2022-12-18T04:00:58;101799.18;;;12.24;64.11
62895;BME280;49204;44.916;37.998;2022-12-18T04:03:28;101796.19;;;12.22;63.83
62895;BME280;49204;44.916;37.998;2022-12-18T04:05:59;101790.87;;;12.23;63.91
62895;BME280;49204;44.916;37.998;2022-12-18T04:08:29;101788.97;;;12.28;63.65
62895;BME280;49204;44.916;37.998;2022-12-18T04:11:00;101780.46;;;12.32;63.52
62895;BME280;49204;44.916;37.998;2022-12-18T04:13:37;101781.23;;;12.35;63.36
62895;BME280;49204;44.916;37.998;2022-12-18T04:16:02;101792.66;;;12.38;63.09
62895;BME280;49204;44.916;37.998;2022-12-18T04:18:31;101797.78;;;12.42;62.88
62895;BME280;49204;44.916;37.998;2022-12-18T04:21:00;101802.20;;;12.42;63.03
62895;BME280;49204;44.916;37.998;2022-12-18T04:23:29;101798.33;;;12.39;63.13
62895;BME280;49204;44.916;37.998;2022-12-18T04:25:58;101791.88;;;12.34;63.29
62895;BME280;49204;44.916;37.998;2022-12-18T04:28:29;101794.95;;;12.33;63.15
62895;BME280;49204;44.916;37.998;2022-12-18T04:30:58;101802.91;;;12.32;63.31
62895;BME280;49204;44.916;37.998;2022-12-18T04:33:27;101804.70;;;12.31;63.34
62895;BME280;49204;44.916;37.998;2022-12-18T04:35:57;101810.41;;;12.32;63.31
62895;BME280;49204;44.916;37.998;2022-12-18T04:38:26;101807.77;;;12.32;63.40
62895;BME280;49204;44.916;37.998;2022-12-18T04:40:56;101816.00;;;12.36;63.39
62895;BME280;49204;44.916;37.998;2022-12-18T04:43:26;101814.22;;;12.37;63.35
62895;BME280;49204;44.916;37.998;2022-12-18T04:46:03;101818.95;;;12.41;63.30
62895;BME280;49204;44.916;37.998;2022-12-18T04:48:32;101819.73;;;12.44;63.24
62895;BME280;49204;44.916;37.998;2022-12-18T04:51:02;101815.73;;;12.46;63.19
62895;BME280;49204;44.916;37.998;2022-12-18T04:53:31;101819.14;;;12.49;63.17
62895;BME280;49204;44.916;37.998;2022-12-18T04:56:14;101826.09;;;12.52;63.14
62895;BME280;49204;44.916;37.998;2022-12-18T04:58:38;101819.95;;;12.51;63.16
62895;BME280;49204;44.916;37.998;2022-12-18T05:01:08;101816.42;;;12.52;63.14
62895;BME280;49204;44.916;37.998;2022-12-18T05:03:38;101823.11;;;12.49;63.23
62895;BME280;49204;44.916;37.998;2022-12-18T05:06:08;101820.11;;;12.47;63.26
62895;BME280;49204;44.916;37.998;2022-12-18T05:08:36;101822.41;;;12.43;63.34
62895;BME280;49204;44.916;37.998;2022-12-18T05:11:10;101824.66;;;12.42;63.43
62895;BME280;49204;44.916;37.998;2022-12-18T05:13:40;101820.70;;;12.42;63.43
62895;BME280;49204;44.916;37.998;2022-12-18T05:16:09;101822.41;;;12.43;63.33
62895;BME280;49204;44.916;37.998;2022-12-18T05:18:38;101826.48;;;12.40;63.26
62895;BME280;49204;44.916;37.998;2022-12-18T05:21:06;101830.98;;;12.36;63.15
62895;BME280;49204;44.916;37.998;2022-12-18T05:23:36;101824.04;;;12.32;63.20
62895;BME280;49204;44.916;37.998;2022-12-18T05:26:06;101827.64;;;12.29;63.20
62895;BME280;49204;44.916;37.998;2022-12-18T05:28:36;101829.39;;;12.30;62.95
62895;BME280;49204;44.916;37.998;2022-12-18T05:31:05;101829.24;;;12.35;62.95
62895;BME280;49204;44.916;37.998;2022-12-18T05:33:35;101826.87;;;12.41;62.64
62895;BME280;49204;44.916;37.998;2022-12-18T05:36:05;101831.50;;;12.49;62.42
62895;BME280;49204;44.916;37.998;2022-12-18T05:38:36;101840.73;;;12.64;62.21
62895;BME280;49204;44.916;37.998;2022-12-18T05:41:06;101851.19;;;12.82;62.02
62895;BME280;49204;44.916;37.998;2022-12-18T05:43:36;101844.12;;;12.97;61.79
62895;BME280;49204;44.916;37.998;2022-12-18T05:46:07;101850.48;;;13.05;61.72
62895;BME280;49204;44.916;37.998;2022-12-18T05:48:36;101855.05;;;13.13;61.67
62895;BME280;49204;44.916;37.998;2022-12-18T05:51:10;101873.89;;;13.32;61.24
62895;BME280;49204;44.916;37.998;2022-12-18T05:53:41;101877.86;;;13.45;60.98
62895;BME280;49204;44.916;37.998;2022-12-18T05:56:16;101876.75;;;13.39;61.00
62895;BME280;49204;44.916;37.998;2022-12-18T05:58:45;101875.83;;;13.25;61.15
62895;BME280;49204;44.916;37.998;2022-12-18T06:01:22;101879.23;;;13.16;61.38
62895;BME280;49204;44.916;37.998;2022-12-18T06:03:45;101874.63;;;13.07;61.55
62895;BME280;49204;44.916;37.998;2022-12-18T06:06:30;101882.34;;;13.00;61.59
62895;BME280;49204;44.916;37.998;2022-12-18T06:08:55;101877.25;;;12.94;61.70
62895;BME280;49204;44.916;37.998;2022-12-18T06:11:26;101879.89;;;12.94;61.69
62895;BME280;49204;44.916;37.998;2022-12-18T06:13:56;101869.03;;;13.03;61.54
62895;BME280;49204;44.916;37.998;2022-12-18T06:16:25;101878.52;;;13.24;61.23
62895;BME280;49204;44.916;37.998;2022-12-18T06:18:56;101872.52;;;13.60;60.81
62895;BME280;49204;44.916;37.998;2022-12-18T06:21:25;101874.23;;;14.00;59.63
62895;BME280;49204;44.916;37.998;2022-12-18T06:23:54;101875.22;;;14.22;59.28
62895;BME280;49204;44.916;37.998;2022-12-18T06:26:23;101881.61;;;14.28;59.34
62895;BME280;49204;44.916;37.998;2022-12-18T06:28:52;101884.55;;;14.33;59.38
62895;BME280;49204;44.916;37.998;2022-12-18T06:31:21;101885.91;;;14.44;59.57
62895;BME280;49204;44.916;37.998;2022-12-18T06:33:50;101892.52;;;14.56;59.24
62895;BME280;49204;44.916;37.998;2022-12-18T06:36:19;101890.95;;;14.76;59.04
62895;BME280;49204;44.916;37.998;2022-12-18T06:38:49;101896.64;;;14.89;58.84
62895;BME280;49204;44.916;37.998;2022-12-18T06:41:20;101901.58;;;14.86;58.85
62895;BME280;49204;44.916;37.998;2022-12-18T06:43:49;101900.40;;;14.83;58.75
62895;BME280;49204;44.916;37.998;2022-12-18T06:46:18;101903.05;;;14.83;58.87
62895;BME280;49204;44.916;37.998;2022-12-18T06:48:48;101904.52;;;14.90;58.98
62895;BME280;49204;44.916;37.998;2022-12-18T06:51:22;101915.18;;;15.00;58.95
62895;BME280;49204;44.916;37.998;2022-12-18T06:53:51;101912.00;;;15.02;58.91
62895;BME280;49204;44.916;37.998;2022-12-18T06:56:19;101918.00;;;15.08;58.96
62895;BME280;49204;44.916;37.998;2022-12-18T06:58:48;101920.55;;;15.11;58.93
62895;BME280;49204;44.916;37.998;2022-12-18T07:01:17;101918.54;;;15.28;58.95
62895;BME280;49204;44.916;37.998;2022-12-18T07:03:51;101915.30;;;15.53;58.81
62895;BME280;49204;44.916;37.998;2022-12-18T07:06:18;101912.85;;;15.59;59.09
62895;BME280;49204;44.916;37.998;2022-12-18T07:08:47;101912.64;;;15.75;59.10
62895;BME280;49204;44.916;37.998;2022-12-18T07:11:17;101905.73;;;16.23;58.62
62895;BME280;49204;44.916;37.998;2022-12-18T07:13:46;101914.08;;;16.54;58.12
62895;BME280;49204;44.916;37.998;2022-12-18T07:16:17;101909.62;;;17.03;57.25
62895;BME280;49204;44.916;37.998;2022-12-18T07:18:46;101906.58;;;17.39;56.51
62895;BME280;49204;44.916;37.998;2022-12-18T07:21:18;101915.00;;;17.83;55.84
62895;BME280;49204;44.916;37.998;2022-12-18T07:23:46;101918.74;;;18.40;54.88
62895;BME280;49204;44.916;37.998;2022-12-18T07:26:18;101920.73;;;18.95;53.72
62895;BME280;49204;44.916;37.998;2022-12-18T07:28:48;101923.81;;;19.58;53.02
62895;BME280;49204;44.916;37.998;2022-12-18T07:31:21;101925.23;;;19.56;52.77
62895;BME280;49204;44.916;37.998;2022-12-18T07:33:50;101927.55;;;19.55;52.61
62895;BME280;49204;44.916;37.998;2022-12-18T07:36:23;101929.66;;;19.41;53.08
62895;BME280;49204;44.916;37.998;2022-12-18T07:38:52;101932.34;;;19.64;52.43
62895;BME280;49204;44.916;37.998;2022-12-18T07:41:21;101933.11;;;20.27;50.96
62895;BME280;49204;44.916;37.998;2022-12-18T07:43:51;101942.84;;;21.07;49.87
62895;BME280;49204;44.916;37.998;2022-12-18T07:46:20;101934.61;;;21.72;48.86
62895;BME280;49204;44.916;37.998;2022-12-18T07:48:49;101935.22;;;22.03;48.11
62895;BME280;49204;44.916;37.998;2022-12-18T07:51:18;101935.42;;;22.58;47.39
62895;BME280;49204;44.916;37.998;2022-12-18T07:53:47;101928.50;;;22.61;46.87
62895;BME280;49204;44.916;37.998;2022-12-18T07:56:16;101925.72;;;21.71;47.61
62895;BME280;49204;44.916;37.998;2022-12-18T07:58:48;101932.96;;;20.73;48.46
62895;BME280;49204;44.916;37.998;2022-12-18T08:01:16;101929.52;;;19.98;49.30
62895;BME280;49204;44.916;37.998;2022-12-18T08:03:50;101943.70;;;19.45;50.44
62895;BME280;49204;44.916;37.998;2022-12-18T08:06:16;101941.44;;;18.98;50.92
62895;BME280;49204;44.916;37.998;2022-12-18T08:08:44;101946.44;;;18.46;51.76
62895;BME280;49204;44.916;37.998;2022-12-18T08:11:13;101938.77;;;18.05;52.61
62895;BME280;49204;44.916;37.998;2022-12-18T08:13:42;101936.79;;;17.83;53.21
62895;BME280;49204;44.916;37.998;2022-12-18T08:16:11;101933.02;;;17.69;53.72
62895;BME280;49204;44.916;37.998;2022-12-18T08:18:41;101929.72;;;17.64;54.08
62895;BME280;49204;44.916;37.998;2022-12-18T08:21:18;101938.13;;;17.83;54.02
62895;BME280;49204;44.916;37.998;2022-12-18T08:23:51;101932.31;;;17.83;54.19
62895;BME280;49204;44.916;37.998;2022-12-18T08:26:20;101930.36;;;17.69;54.56
62895;BME280;49204;44.916;37.998;2022-12-18T08:28:50;101922.38;;;17.69;54.82
62895;BME280;49204;44.916;37.998;2022-12-18T08:31:19;101915.95;;;17.73;55.26
62895;BME280;49204;44.916;37.998;2022-12-18T08:33:50;101916.58;;;17.79;55.43
62895;BME280;49204;44.916;37.998;2022-12-18T08:36:20;101913.98;;;17.77;55.85
62895;BME280;49204;44.916;37.998;2022-12-18T08:38:49;101897.55;;;17.69;56.49
62895;BME280;49204;44.916;37.998;2022-12-18T08:41:19;101898.55;;;17.66;56.67
62895;BME280;49204;44.916;37.998;2022-12-18T08:43:48;101895.88;;;17.66;56.92
62895;BME280;49204;44.916;37.998;2022-12-18T08:46:39;101890.02;;;17.60;57.29
62895;BME280;49204;44.916;37.998;2022-12-18T08:49:12;101896.97;;;17.80;57.19
62895;BME280;49204;44.916;37.998;2022-12-18T08:51:41;101896.84;;;18.51;56.00
62895;BME280;49204;44.916;37.998;2022-12-18T08:54:11;101898.37;;;18.88;55.25
62895;BME280;49204;44.916;37.998;2022-12-18T08:56:41;101897.08;;;18.96;55.30
62895;BME280;49204;44.916;37.998;2022-12-18T08:59:10;101910.72;;;19.30;54.88
62895;BME280;49204;44.916;37.998;2022-12-18T09:01:38;101891.11;;;19.61;54.42
62895;BME280;49204;44.916;37.998;2022-12-18T09:04:13;101894.34;;;19.59;54.59
62895;BME280;49204;44.916;37.998;2022-12-18T09:06:38;101900.80;;;19.48;54.94
62895;BME280;49204;44.916;37.998;2022-12-18T09:09:07;101908.67;;;19.65;54.78
62895;BME280;49204;44.916;37.998;2022-12-18T09:11:35;101910.91;;;19.50;55.20
62895;BME280;49204;44.916;37.998;2022-12-18T09:14:04;101916.51;;;19.22;55.85
62895;BME280;49204;44.916;37.998;2022-12-18T09:16:33;101914.01;;;18.87;56.44
62895;BME280;49204;44.916;37.998;2022-12-18T09:19:04;101916.99;;;18.48;56.96
62895;BME280;49204;44.916;37.998;2022-12-18T09:21:37;101918.64;;;18.08;57.42
62895;BME280;49204;44.916;37.998;2022-12-18T09:24:15;101924.72;;;17.75;57.93
62895;BME280;49204;44.916;37.998;2022-12-18T09:26:39;101933.53;;;17.50;58.45
62895;BME280;49204;44.916;37.998;2022-12-18T09:29:08;101940.71;;;17.30;58.83
62895;BME280;49204;44.916;37.998;2022-12-18T09:31:38;101949.16;;;17.11;59.24
62895;BME280;49204;44.916;37.998;2022-12-18T09:34:07;101944.10;;;16.96;59.59
62895;BME280;49204;44.916;37.998;2022-12-18T09:36:37;101950.55;;;16.80;60.00
62895;BME280;49204;44.916;37.998;2022-12-18T09:39:05;101941.77;;;16.69;60.30
62895;BME280;49204;44.916;37.998;2022-12-18T09:44:27;101938.52;;;16.52;61.12
62895;BME280;49204;44.916;37.998;2022-12-18T09:47:05;101938.55;;;16.42;61.56
62895;BME280;49204;44.916;37.998;2022-12-18T09:49:36;101935.63;;;16.38;61.77
62895;BME280;49204;44.916;37.998;2022-12-18T09:52:27;101930.76;;;16.37;61.81
62895;BME280;49204;44.916;37.998;2022-12-18T09:55:05;101930.70;;;16.39;62.12
62895;BME280;49204;44.916;37.998;2022-12-18T09:57:37;101930.62;;;16.51;61.96
62895;BME280;49204;44.916;37.998;2022-12-18T10:02:41;101931.67;;;17.61;60.27
62895;BME280;49204;44.916;37.998;2022-12-18T10:05:20;101929.55;;;18.04;59.61
62895;BME280;49204;44.916;37.998;2022-12-18T10:08:12;101936.80;;;19.02;57.86
62895;BME280;49204;44.916;37.998;2022-12-18T10:16:09;101941.43;;;20.44;55.33
62895;BME280;49204;44.916;37.998;2022-12-18T10:21:23;101952.31;;;19.50;57.12
62895;BME280;49204;44.916;37.998;2022-12-18T10:26:28;101969.48;;;18.39;59.09
62895;BME280;49204;44.916;37.998;2022-12-18T10:28:59;101968.26;;;17.93;59.87
62895;BME280;49204;44.916;37.998;2022-12-18T10:31:28;101971.25;;;17.60;60.46
62895;BME280;49204;44.916;37.998;2022-12-18T10:33:57;101980.09;;;17.32;61.02
62895;BME280;49204;44.916;37.998;2022-12-18T10:36:26;101971.00;;;17.09;61.52
62895;BME280;49204;44.916;37.998;2022-12-18T10:39:13;101978.57;;;16.89;61.93
62895;BME280;49204;44.916;37.998;2022-12-18T10:41:29;101975.98;;;16.77;62.26
62895;BME280;49204;44.916;37.998;2022-12-18T10:44:22;101983.59;;;16.66;62.75
62895;BME280;49204;44.916;37.998;2022-12-18T10:47:02;101980.55;;;16.54;63.01
62895;BME280;49204;44.916;37.998;2022-12-18T10:49:30;101977.15;;;16.40;63.42
62895;BME280;49204;44.916;37.998;2022-12-18T10:52:20;101976.64;;;16.32;63.62
62895;BME280;49204;44.916;37.998;2022-12-18T10:54:52;101980.48;;;16.25;63.95
62895;BME280;49204;44.916;37.998;2022-12-18T10:57:38;101989.59;;;16.19;64.07
62895;BME280;49204;44.916;37.998;2022-12-18T11:00:26;101999.01;;;16.16;64.15
62895;BME280;49204;44.916;37.998;2022-12-18T11:02:57;101997.95;;;16.10;64.24
62895;BME280;49204;44.916;37.998;2022-12-18T11:05:31;102006.10;;;15.95;64.50
62895;BME280;49204;44.916;37.998;2022-12-18T11:08:01;102024.52;;;15.66;64.94
62895;BME280;49204;44.916;37.998;2022-12-18T11:10:35;102036.73;;;15.36;65.38
62895;BME280;49204;44.916;37.998;2022-12-18T11:13:18;102040.64;;;15.02;66.32
62895;BME280;49204;44.916;37.998;2022-12-18T11:15:48;102045.86;;;14.69;67.06
62895;BME280;49204;44.916;37.998;2022-12-18T11:21:12;102056.27;;;14.48;67.27
62895;BME280;49204;44.916;37.998;2022-12-18T11:23:34;102063.59;;;14.40;67.17
62895;BME280;49204;44.916;37.998;2022-12-18T11:26:04;102056.55;;;14.25;67.52
62895;BME280;49204;44.916;37.998;2022-12-18T11:28:45;102066.44;;;14.07;68.13
62895;BME280;49204;44.916;37.998;2022-12-18T11:31:25;102062.11;;;13.91;68.33
62895;BME280;49204;44.916;37.998;2022-12-18T11:34:10;102053.73;;;13.77;68.82
62895;BME280;49204;44.916;37.998;2022-12-18T11:36:43;102062.77;;;13.69;69.38
62895;BME280;49204;44.916;37.998;2022-12-18T11:39:34;102049.98;;;13.56;69.67
62895;BME280;49204;44.916;37.998;2022-12-18T11:42:12;102052.33;;;13.50;69.41
62895;BME280;49204;44.916;37.998;2022-12-18T11:50:24;102070.89;;;13.19;69.63
62895;BME280;49204;44.916;37.998;2022-12-18T11:52:47;102091.56;;;13.04;69.93
62895;BME280;49204;44.916;37.998;2022-12-18T12:01:21;102102.37;;;12.62;70.38
62895;BME280;49204;44.916;37.998;2022-12-18T12:12:35;102127.52;;;12.05;71.34
62895;BME280;49204;44.916;37.998;2022-12-18T12:15:13;102122.82;;;11.98;71.43
62895;BME280;49204;44.916;37.998;2022-12-18T12:20:53;102125.64;;;11.89;71.53
62895;BME280;49204;44.916;37.998;2022-12-18T12:32:39;102160.43;;;11.68;71.07
62895;BME280;49204;44.916;37.998;2022-12-18T12:37:25;102145.87;;;11.48;71.12
62895;BME280;49204;44.916;37.998;2022-12-18T12:39:52;102148.97;;;11.48;71.18
62895;BME280;49204;44.916;37.998;2022-12-18T12:42:39;102153.08;;;11.40;71.09
62895;BME280;49204;44.916;37.998;2022-12-18T12:45:42;102153.59;;;11.36;71.14
62895;BME280;49204;44.916;37.998;2022-12-18T12:48:13;102159.95;;;11.25;71.39
62895;BME280;49204;44.916;37.998;2022-12-18T12:50:39;102164.87;;;11.20;71.41
62895;BME280;49204;44.916;37.998;2022-12-18T12:53:13;102168.84;;;11.19;71.52
62895;BME280;49204;44.916;37.998;2022-12-18T12:55:41;102175.75;;;11.02;71.59
62895;BME280;49204;44.916;37.998;2022-12-18T13:07:06;102185.72;;;10.59;72.11
62895;BME280;49204;44.916;37.998;2022-12-18T13:09:34;102184.91;;;10.54;71.95
62895;BME280;49204;44.916;37.998;2022-12-18T13:12:10;102190.67;;;10.50;71.84
62895;BME280;49204;44.916;37.998;2022-12-18T13:15:20;102198.22;;;10.45;72.00
62895;BME280;49204;44.916;37.998;2022-12-18T13:17:44;102211.44;;;10.40;72.02
62895;BME280;49204;44.916;37.998;2022-12-18T13:20:14;102223.42;;;10.31;72.21
62895;BME280;49204;44.916;37.998;2022-12-18T13:22:45;102211.72;;;10.20;72.40
62895;BME280;49204;44.916;37.998;2022-12-18T13:28:15;102222.03;;;10.03;72.97
62895;BME280;49204;44.916;37.998;2022-12-18T13:30:56;102231.77;;;9.95;73.05
62895;BME280;49204;44.916;37.998;2022-12-18T13:36:32;102235.78;;;9.91;72.88
62895;BME280;49204;44.916;37.998;2022-12-18T13:38:46;102241.00;;;9.92;72.74
62895;BME280;49204;44.916;37.998;2022-12-18T13:41:26;102259.48;;;9.89;72.61
62895;BME280;49204;44.916;37.998;2022-12-18T13:44:10;102260.36;;;9.88;72.78
62895;BME280;49204;44.916;37.998;2022-12-18T13:46:44;102268.73;;;9.83;72.88
62895;BME280;49204;44.916;37.998;2022-12-18T13:51:52;102279.25;;;9.84;72.80
62895;BME280;49204;44.916;37.998;2022-12-18T13:54:35;102291.08;;;9.86;72.63
62895;BME280;49204;44.916;37.998;2022-12-18T13:57:05;102289.84;;;9.80;72.68
62895;BME280;49204;44.916;37.998;2022-12-18T13:59:37;102301.39;;;9.66;72.89
62895;BME280;49204;44.916;37.998;2022-12-18T14:02:23;102306.22;;;9.62;72.73
62895;BME280;49204;44.916;37.998;2022-12-18T14:04:52;102310.61;;;9.63;72.61
62895;BME280;49204;44.916;37.998;2022-12-18T14:07:29;102318.06;;;9.62;72.51
62895;BME280;49204;44.916;37.998;2022-12-18T14:09:59;102318.10;;;9.61;72.63
62895;BME280;49204;44.916;37.998;2022-12-18T14:12:32;102328.67;;;9.53;72.67
62895;BME280;49204;44.916;37.998;2022-12-18T14:15:46;102340.20;;;9.37;73.20
62895;BME280;49204;44.916;37.998;2022-12-18T14:20:54;102358.20;;;9.34;73.14
62895;BME280;49204;44.916;37.998;2022-12-18T14:23:34;102346.77;;;9.37;72.90
62895;BME280;49204;44.916;37.998;2022-12-18T14:26:23;102341.12;;;9.33;72.90
62895;BME280;49204;44.916;37.998;2022-12-18T14:28:55;102338.09;;;9.28;72.86
62895;BME280;49204;44.916;37.998;2022-12-18T14:31:26;102348.16;;;9.27;72.82
62895;BME280;49204;44.916;37.998;2022-12-18T14:33:55;102356.05;;;9.27;72.75
62895;BME280;49204;44.916;37.998;2022-12-18T14:36:27;102363.46;;;9.33;72.64
62895;BME280;49204;44.916;37.998;2022-12-18T14:38:58;102365.68;;;9.32;72.52
62895;BME280;49204;44.916;37.998;2022-12-18T14:41:27;102371.81;;;9.31;72.46
62895;BME280;49204;44.916;37.998;2022-12-18T14:44:04;102378.50;;;9.15;72.77
62895;BME280;49204;44.916;37.998;2022-12-18T14:49:23;102361.95;;;8.98;73.14
62895;BME280;49204;44.916;37.998;2022-12-18T14:51:54;102361.10;;;8.94;73.15
62895;BME280;49204;44.916;37.998;2022-12-18T14:54:24;102342.31;;;8.88;73.00
62895;BME280;49204;44.916;37.998;2022-12-18T14:57:05;102348.06;;;8.80;73.16